Terminal Aerodrome Forecast
Issued by NWS Portland, OR

Home | Current Version | Previous Version | Text Only | Print | Product List | Glossary On
Versions: 1 2 3 4 5 6 7 8 9 10 11 12 13 14
000
FTUS46 KPQR 211124
TAFHIO
TAF
KHIO 211124Z 2112/2212 00000KT P6SM OVC180
     FM212300 34004KT P6SM -RA OVC040
     FM220200 32007KT P6SM -RA OVC025
     FM220900 31007KT P6SM OVC050=

USA.gov is the U.S. government's official web portal to all federal, state and local government web resources and services.